createdAt,value
2022-09-25T00:01:48.899Z,11.65
2022-09-25T00:04:15.329Z,11.57
2022-09-25T00:06:42.195Z,11.57
2022-09-25T00:09:10.208Z,11.61
2022-09-25T00:11:38.570Z,11.61
2022-09-25T00:14:04.934Z,11.62
2022-09-25T00:16:31.496Z,11.59
2022-09-25T00:19:17.132Z,11.51
2022-09-25T00:21:43.479Z,11.48
2022-09-25T00:24:10.209Z,11.47
2022-09-25T00:26:40.415Z,11.52
2022-09-25T00:29:06.993Z,11.41
2022-09-25T00:31:33.387Z,11.44
2022-09-25T00:34:00.479Z,11.57
2022-09-25T00:36:26.858Z,11.44
2022-09-25T00:38:54.264Z,11.44
2022-09-25T00:41:21.519Z,11.42
2022-09-25T00:43:50.573Z,11.44
2022-09-25T00:46:23.063Z,11.39
2022-09-25T00:48:49.477Z,11.42
2022-09-25T00:51:16.738Z,11.40
2022-09-25T00:53:43.072Z,11.35
2022-09-25T00:56:09.720Z,11.45
2022-09-25T00:58:36.053Z,11.48
2022-09-25T01:01:02.473Z,11.37
2022-09-25T01:03:28.918Z,11.31
2022-09-25T01:05:56.127Z,11.37
2022-09-25T01:08:23.366Z,11.48
2022-09-25T01:10:50.159Z,11.41
2022-09-25T01:13:16.563Z,11.42
2022-09-25T01:15:42.960Z,11.41
2022-09-25T01:18:15.187Z,11.35
2022-09-25T01:20:50.742Z,11.34
2022-09-25T01:23:23.002Z,11.33
2022-09-25T01:26:11.438Z,11.26
2022-09-25T01:28:52.104Z,11.31
2022-09-25T01:31:22.067Z,11.25
2022-09-25T01:33:49.393Z,11.22
2022-09-25T01:36:26.142Z,11.19
2022-09-25T01:39:11.127Z,11.21
2022-09-25T01:41:45.052Z,11.21
2022-09-25T01:44:13.532Z,11.21
2022-09-25T01:46:44.648Z,11.21
2022-09-25T01:49:19.256Z,11.22
2022-09-25T01:51:46.975Z,11.23
2022-09-25T01:54:17.921Z,11.19
2022-09-25T01:56:47.194Z,11.21
2022-09-25T01:59:17.319Z,11.31
2022-09-25T02:01:43.971Z,11.27
2022-09-25T02:04:12.459Z,11.19
2022-09-25T02:06:38.919Z,11.14
2022-09-25T02:09:07.371Z,11.09
2022-09-25T02:11:35.078Z,11.16
2022-09-25T02:14:06.534Z,11.11
2022-09-25T02:16:37.540Z,11.14
2022-09-25T02:19:22.813Z,11.22
2022-09-25T02:21:58.866Z,11.13
2022-09-25T02:24:27.118Z,11.18
2022-09-25T02:26:53.491Z,11.14
2022-09-25T02:29:19.870Z,11.19
2022-09-25T02:31:54.713Z,11.28
2022-09-25T02:34:21.563Z,11.18
2022-09-25T02:36:48.677Z,11.19
2022-09-25T02:39:15.723Z,11.14
2022-09-25T02:41:52.108Z,11.14
2022-09-25T02:44:36.986Z,11.13
2022-09-25T02:47:07.663Z,11.16
2022-09-25T02:49:44.402Z,11.06
2022-09-25T02:52:11.534Z,11.05
2022-09-25T02:54:56.656Z,11.04
2022-09-25T02:57:43.365Z,10.95
2022-09-25T03:00:10.096Z,11.03
2022-09-25T03:02:36.707Z,11.02
2022-09-25T03:05:03.544Z,10.95
2022-09-25T03:07:49.866Z,10.97
2022-09-25T03:10:16.591Z,11.02
2022-09-25T03:12:42.924Z,10.96
2022-09-25T03:15:09.491Z,10.93
2022-09-25T03:17:37.357Z,10.97
2022-09-25T03:20:03.877Z,10.90
2022-09-25T03:22:30.221Z,10.88
2022-09-25T03:24:58.925Z,10.94
2022-09-25T03:27:28.087Z,10.88
2022-09-25T03:29:55.345Z,10.87
2022-09-25T03:32:22.143Z,10.86
2022-09-25T03:34:48.531Z,10.89
2022-09-25T03:37:14.860Z,10.88
2022-09-25T03:39:41.385Z,10.87
2022-09-25T03:42:07.866Z,10.87
2022-09-25T03:44:34.262Z,10.86
2022-09-25T03:47:00.602Z,10.89
2022-09-25T03:49:27.035Z,10.87
2022-09-25T03:51:53.374Z,10.82
2022-09-25T03:54:19.735Z,10.77
2022-09-25T03:56:46.092Z,10.77
2022-09-25T03:59:12.423Z,10.70
2022-09-25T04:01:38.899Z,10.68
2022-09-25T04:04:05.329Z,10.64
2022-09-25T04:06:31.701Z,10.64
2022-09-25T04:08:58.097Z,10.66
2022-09-25T04:11:24.483Z,10.61
2022-09-25T04:13:50.916Z,10.74
2022-09-25T04:16:17.446Z,10.66
2022-09-25T04:18:43.881Z,10.70
2022-09-25T04:21:11.028Z,10.66
2022-09-25T04:23:37.480Z,10.68
2022-09-25T04:26:03.825Z,10.63
2022-09-25T04:28:32.197Z,10.68
2022-09-25T04:30:58.681Z,10.72
2022-09-25T04:33:43.775Z,10.84
2022-09-25T04:36:10.158Z,10.72
2022-09-25T04:38:36.543Z,10.70
2022-09-25T04:41:03.015Z,10.75
2022-09-25T04:43:29.534Z,10.71
2022-09-25T04:45:56.008Z,10.60
2022-09-25T04:48:22.466Z,10.63
2022-09-25T04:50:49.350Z,10.58
2022-09-25T04:53:16.392Z,10.62
2022-09-25T04:55:42.761Z,10.56
2022-09-25T04:58:09.079Z,10.52
2022-09-25T05:00:38.214Z,10.56
2022-09-25T05:03:04.915Z,10.56
2022-09-25T05:05:31.524Z,10.54
2022-09-25T05:07:58.779Z,10.49
2022-09-25T05:10:27.697Z,10.55
2022-09-25T05:12:58.212Z,10.54
2022-09-25T05:15:24.685Z,10.51
2022-09-25T05:17:53.478Z,10.53
2022-09-25T05:20:19.902Z,10.54
2022-09-25T05:22:46.592Z,10.48
2022-09-25T05:25:13.038Z,10.50
2022-09-25T05:27:39.398Z,10.51
2022-09-25T05:30:06.240Z,10.58
2022-09-25T05:32:32.704Z,10.55
2022-09-25T05:34:59.091Z,10.57
2022-09-25T05:37:25.423Z,10.59
2022-09-25T05:39:52.338Z,10.63
2022-09-25T05:42:19.529Z,10.63
2022-09-25T05:44:46.237Z,10.61
2022-09-25T05:47:12.660Z,10.63
2022-09-25T05:49:39.001Z,10.65
2022-09-25T05:52:05.344Z,10.70
2022-09-25T05:54:31.716Z,10.68
2022-09-25T05:56:58.185Z,10.70
2022-09-25T05:59:24.562Z,10.67
2022-09-25T06:01:51.183Z,10.72
2022-09-25T06:04:17.574Z,10.86
2022-09-25T06:06:44.232Z,10.74
2022-09-25T06:09:10.652Z,10.85
2022-09-25T06:11:37.015Z,10.81
2022-09-25T06:14:03.913Z,10.87
2022-09-25T06:16:31.162Z,10.84
2022-09-25T06:18:57.675Z,10.82
2022-09-25T06:21:24.344Z,10.85
2022-09-25T06:23:50.684Z,10.91
2022-09-25T06:26:17.068Z,10.86
2022-09-25T06:28:43.429Z,10.82
2022-09-25T06:31:10.152Z,10.75
2022-09-25T06:33:36.606Z,10.88
2022-09-25T06:36:04.617Z,10.87
2022-09-25T06:38:33.287Z,10.92
2022-09-25T06:41:00.584Z,10.93
2022-09-25T06:43:27.803Z,10.95
2022-09-25T06:45:54.307Z,11.00
2022-09-25T06:48:22.084Z,11.04
2022-09-25T06:50:49.043Z,11.15
2022-09-25T06:53:15.761Z,11.21
2022-09-25T06:55:42.197Z,11.27
2022-09-25T06:58:09.945Z,11.29
2022-09-25T07:00:36.297Z,11.19
2022-09-25T07:03:21.428Z,11.26
2022-09-25T07:05:48.446Z,11.35
2022-09-25T07:08:16.205Z,11.36
2022-09-25T07:10:49.294Z,11.44
2022-09-25T07:13:16.669Z,11.46
2022-09-25T07:15:43.246Z,11.44
2022-09-25T07:18:09.660Z,11.48
2022-09-25T07:20:36.859Z,11.31
2022-09-25T07:23:04.473Z,11.40
2022-09-25T07:25:33.790Z,11.45
2022-09-25T07:28:00.399Z,11.35
2022-09-25T07:30:29.894Z,11.40
2022-09-25T07:33:00.108Z,11.41
2022-09-25T07:35:27.315Z,11.44
2022-09-25T07:37:57.489Z,11.44
2022-09-25T07:40:24.513Z,11.49
2022-09-25T07:42:50.978Z,11.50
2022-09-25T07:45:17.410Z,11.42
2022-09-25T07:47:43.795Z,11.51
2022-09-25T07:50:15.284Z,11.49
2022-09-25T07:52:41.995Z,11.50
2022-09-25T07:55:09.117Z,11.58
2022-09-25T07:57:35.541Z,11.54
2022-09-25T08:00:02.044Z,11.49
2022-09-25T08:02:28.604Z,11.48
2022-09-25T08:04:55.059Z,11.55
2022-09-25T08:07:21.429Z,11.55
2022-09-25T08:09:47.983Z,11.62
2022-09-25T08:12:14.349Z,11.79
2022-09-25T08:14:42.059Z,11.69
2022-09-25T08:17:08.477Z,11.67
2022-09-25T08:19:35.010Z,11.69
2022-09-25T08:22:01.490Z,11.59
2022-09-25T08:24:27.860Z,11.46
2022-09-25T08:26:54.419Z,11.53
2022-09-25T08:29:20.756Z,11.66
2022-09-25T08:31:47.833Z,11.68
2022-09-25T08:34:39.397Z,11.92
2022-09-25T08:37:01.709Z,12.08
2022-09-25T08:39:28.117Z,12.01
2022-09-25T08:41:55.216Z,11.69
2022-09-25T08:44:26.494Z,11.80
2022-09-25T08:47:19.069Z,11.91
2022-09-25T08:49:47.832Z,12.00
2022-09-25T08:52:16.287Z,12.15
2022-09-25T08:54:45.089Z,12.31
2022-09-25T08:57:24.248Z,12.39
2022-09-25T08:59:52.690Z,12.22
2022-09-25T09:02:19.829Z,12.15
2022-09-25T09:04:51.348Z,12.26
2022-09-25T09:07:32.769Z,12.36
2022-09-25T09:10:02.087Z,12.30
2022-09-25T09:12:40.237Z,12.62
2022-09-25T09:15:22.950Z,12.76
2022-09-25T09:17:49.321Z,12.65
2022-09-25T09:20:19.381Z,12.99
2022-09-25T09:22:50.949Z,13.08
2022-09-25T09:25:25.497Z,12.78
2022-09-25T09:28:02.164Z,12.81
2022-09-25T09:30:31.377Z,12.94
2022-09-25T09:33:13.050Z,13.46
2022-09-25T09:35:42.415Z,13.06
2022-09-25T09:38:15.329Z,12.89
2022-09-25T09:40:41.677Z,12.88
2022-09-25T09:43:31.241Z,12.89
2022-09-25T09:46:16.560Z,12.88
2022-09-25T09:48:50.819Z,12.91
2022-09-25T09:51:24.333Z,13.02
2022-09-25T09:53:50.594Z,13.14
2022-09-25T09:56:21.300Z,13.18
2022-09-25T09:58:54.444Z,13.13
2022-09-25T10:01:40.369Z,13.31
2022-09-25T10:04:11.378Z,13.59
2022-09-25T10:06:38.742Z,13.62
2022-09-25T10:09:06.770Z,14.10
2022-09-25T10:11:33.418Z,14.27
2022-09-25T10:14:02.091Z,13.81
2022-09-25T10:16:28.469Z,13.74
2022-09-25T10:18:57.249Z,13.76
2022-09-25T10:21:42.248Z,13.81
2022-09-25T10:24:08.832Z,13.66
2022-09-25T10:26:36.758Z,13.57
2022-09-25T10:29:23.300Z,13.78
2022-09-25T10:31:56.591Z,13.82
2022-09-25T10:34:24.102Z,13.68
2022-09-25T10:36:51.633Z,13.41
2022-09-25T10:39:46.677Z,13.42
2022-09-25T10:42:33.054Z,13.34
2022-09-25T10:44:59.404Z,13.05
2022-09-25T10:47:48.538Z,13.08
2022-09-25T10:50:16.593Z,13.95
2022-09-25T10:52:59.020Z,14.60
2022-09-25T10:55:28.348Z,15.04
2022-09-25T10:57:58.970Z,15.25
2022-09-25T11:00:26.678Z,15.53
2022-09-25T11:02:54.603Z,16.08
2022-09-25T11:05:22.078Z,16.31
2022-09-25T11:07:52.259Z,16.21
2022-09-25T11:10:19.715Z,16.03
2022-09-25T11:12:46.546Z,16.13
2022-09-25T11:15:16.169Z,15.83
2022-09-25T11:17:43.017Z,15.52
2022-09-25T11:20:16.360Z,15.88
2022-09-25T11:22:44.122Z,15.72
2022-09-25T11:25:15.200Z,15.49
2022-09-25T11:27:53.415Z,15.00
2022-09-25T11:30:20.173Z,14.41
2022-09-25T11:32:52.463Z,14.29
2022-09-25T11:35:25.112Z,14.03
2022-09-25T11:38:02.476Z,14.02
2022-09-25T11:40:53.528Z,14.55
2022-09-25T11:43:21.982Z,15.69
2022-09-25T11:45:49.370Z,15.69
2022-09-25T11:48:24.818Z,15.92
2022-09-25T11:51:07.332Z,16.37
2022-09-25T11:53:33.632Z,17.17
2022-09-25T11:56:06.584Z,17.43
2022-09-25T11:58:46.645Z,16.43
2022-09-25T12:01:25.894Z,16.06
2022-09-25T12:04:04.454Z,16.31
2022-09-25T12:06:49.527Z,16.14
2022-09-25T12:09:15.781Z,16.71
2022-09-25T12:12:05.821Z,16.99
2022-09-25T12:14:39.274Z,17.14
2022-09-25T12:17:14.771Z,17.21
2022-09-25T12:19:45.663Z,17.35
2022-09-25T12:22:29.932Z,17.97
2022-09-25T12:24:59.834Z,17.46
2022-09-25T12:27:35.478Z,16.66
2022-09-25T12:30:21.304Z,16.31
2022-09-25T12:32:53.446Z,15.79
2022-09-25T12:35:38.687Z,15.47
2022-09-25T12:38:10.938Z,15.42
2022-09-25T12:40:39.169Z,15.45
2022-09-25T12:43:25.130Z,15.38
2022-09-25T12:45:52.891Z,15.36
2022-09-25T12:48:25.697Z,15.34
2022-09-25T12:50:51.981Z,15.42
2022-09-25T12:53:22.605Z,15.32
2022-09-25T12:56:07.753Z,15.27
2022-09-25T12:58:37.042Z,15.20
2022-09-25T13:01:06.266Z,15.30
2022-09-25T13:03:39.164Z,15.17
2022-09-25T13:06:14.547Z,14.95
2022-09-25T13:08:43.201Z,15.03
2022-09-25T13:11:14.720Z,14.89
2022-09-25T13:13:44.657Z,15.17
2022-09-25T13:16:11.107Z,14.95
2022-09-25T13:18:38.557Z,14.84
2022-09-25T13:21:23.745Z,14.92
2022-09-25T13:23:50.577Z,14.93
2022-09-25T13:26:18.487Z,14.92
2022-09-25T13:29:01.597Z,15.15
2022-09-25T13:31:32.036Z,15.43
2022-09-25T13:34:01.373Z,15.50
2022-09-25T13:36:30.914Z,15.57
2022-09-25T13:39:21.040Z,15.64
2022-09-25T13:42:02.531Z,15.61
2022-09-25T13:44:42.077Z,15.33
2022-09-25T13:47:23.730Z,15.17
2022-09-25T13:49:53.669Z,15.18
2022-09-25T13:52:29.635Z,15.11
2022-09-25T13:55:08.393Z,15.09
2022-09-25T13:57:54.889Z,15.47
2022-09-25T14:00:21.305Z,15.42
2022-09-25T14:02:48.032Z,15.42
2022-09-25T14:05:18.542Z,15.32
2022-09-25T14:07:45.595Z,15.31
2022-09-25T14:10:12.684Z,15.28
2022-09-25T14:12:42.575Z,15.29
2022-09-25T14:15:13.282Z,15.42
2022-09-25T14:17:39.629Z,15.95
2022-09-25T14:20:07.299Z,16.48
2022-09-25T14:22:44.782Z,16.69
2022-09-25T14:25:27.822Z,16.76
2022-09-25T14:27:54.451Z,16.48
2022-09-25T14:30:20.926Z,16.39
2022-09-25T14:32:55.741Z,16.42
2022-09-25T14:35:38.531Z,15.97
2022-09-25T14:38:07.897Z,15.89
2022-09-25T14:40:40.150Z,15.66
2022-09-25T14:43:10.538Z,15.77
2022-09-25T14:45:39.708Z,15.74
2022-09-25T14:48:07.453Z,15.65
2022-09-25T14:50:35.705Z,15.61
2022-09-25T14:53:03.052Z,15.50
2022-09-25T14:55:32.484Z,15.55
2022-09-25T14:58:00.119Z,14.83
2022-09-25T15:00:27.317Z,14.58
2022-09-25T15:02:54.374Z,14.70
2022-09-25T15:05:26.790Z,14.71
2022-09-25T15:07:53.475Z,14.68
2022-09-25T15:10:28.904Z,14.42
2022-09-25T15:13:02.225Z,14.30
2022-09-25T15:15:28.536Z,14.13
2022-09-25T15:17:57.878Z,14.06
2022-09-25T15:20:24.872Z,14.02
2022-09-25T15:23:01.792Z,14.04
2022-09-25T15:25:35.367Z,14.20
2022-09-25T15:28:01.738Z,14.14
2022-09-25T15:30:28.066Z,14.16
2022-09-25T15:32:59.854Z,13.97
2022-09-25T15:35:27.988Z,13.88
2022-09-25T15:38:01.853Z,13.81
2022-09-25T15:40:28.635Z,13.76
2022-09-25T15:42:55.101Z,13.90
2022-09-25T15:45:33.684Z,13.95
2022-09-25T15:48:00.732Z,13.82
2022-09-25T15:50:27.591Z,13.56
2022-09-25T15:52:55.296Z,13.71
2022-09-25T15:55:21.697Z,13.56
2022-09-25T15:57:48.868Z,13.63
2022-09-25T16:00:38.708Z,13.71
2022-09-25T16:03:25.395Z,13.74
2022-09-25T16:05:52.498Z,13.71
2022-09-25T16:08:24.965Z,13.76
2022-09-25T16:11:03.548Z,13.60
2022-09-25T16:13:29.881Z,13.69
2022-09-25T16:15:56.485Z,13.76
2022-09-25T16:18:41.230Z,13.70
2022-09-25T16:21:13.534Z,13.66
2022-09-25T16:23:42.291Z,13.69
2022-09-25T16:26:22.140Z,13.57
2022-09-25T16:28:52.317Z,13.57
2022-09-25T16:31:20.436Z,13.58
2022-09-25T16:33:49.242Z,13.55
2022-09-25T16:36:17.992Z,13.50
2022-09-25T16:39:05.095Z,13.56
2022-09-25T16:41:31.527Z,13.67
2022-09-25T16:44:17.369Z,13.76
2022-09-25T16:46:44.601Z,13.59
2022-09-25T16:49:12.324Z,13.47
2022-09-25T16:51:43.679Z,13.49
2022-09-25T16:54:11.122Z,13.45
2022-09-25T16:56:38.563Z,13.45
2022-09-25T16:59:06.026Z,13.50
2022-09-25T17:01:32.381Z,13.27
2022-09-25T17:03:59.964Z,13.22
2022-09-25T17:06:26.643Z,12.90
2022-09-25T17:08:52.993Z,12.66
2022-09-25T17:11:19.603Z,12.46
2022-09-25T17:13:46.163Z,12.17
2022-09-25T17:16:13.475Z,12.17
2022-09-25T17:18:40.999Z,12.28
2022-09-25T17:21:10.176Z,12.50
2022-09-25T17:23:36.514Z,12.48
2022-09-25T17:26:04.138Z,12.42
2022-09-25T17:28:32.851Z,12.64
2022-09-25T17:31:00.312Z,12.67
2022-09-25T17:33:27.393Z,12.35
2022-09-25T17:35:59.016Z,12.11
2022-09-25T17:38:26.931Z,12.19
2022-09-25T17:40:53.529Z,11.86
2022-09-25T17:43:20.029Z,11.71
2022-09-25T17:45:54.085Z,11.70
2022-09-25T17:48:24.277Z,11.30
2022-09-25T17:50:51.188Z,11.29
2022-09-25T17:53:18.360Z,11.13
2022-09-25T17:55:44.767Z,11.03
2022-09-25T17:58:11.160Z,10.93
2022-09-25T18:00:37.504Z,10.84
2022-09-25T18:03:03.947Z,10.61
2022-09-25T18:05:31.677Z,10.37
2022-09-25T18:07:59.075Z,10.27
2022-09-25T18:10:28.869Z,10.22
2022-09-25T18:12:56.022Z,10.09
2022-09-25T18:15:22.354Z,10.08
2022-09-25T18:17:48.725Z,10.19
2022-09-25T18:20:33.720Z,10.32
2022-09-25T18:23:00.175Z,10.31
2022-09-25T18:25:26.729Z,10.41
2022-09-25T18:27:53.482Z,10.39
2022-09-25T18:30:23.014Z,10.36
2022-09-25T18:32:49.834Z,10.36
2022-09-25T18:35:16.236Z,10.34
2022-09-25T18:37:42.690Z,10.23
2022-09-25T18:40:09.598Z,10.25
2022-09-25T18:42:35.995Z,10.25
2022-09-25T18:45:03.666Z,10.24
2022-09-25T18:47:29.998Z,10.23
2022-09-25T18:49:56.340Z,10.18
2022-09-25T18:52:22.805Z,10.16
2022-09-25T18:54:49.162Z,10.14
2022-09-25T18:57:15.723Z,10.10
2022-09-25T18:59:42.039Z,10.18
2022-09-25T19:02:19.512Z,10.18
2022-09-25T19:04:46.178Z,10.07
2022-09-25T19:07:12.515Z,10.13
2022-09-25T19:09:38.827Z,10.04
2022-09-25T19:12:05.985Z,9.99
2022-09-25T19:14:32.361Z,10.05
2022-09-25T19:16:58.723Z,10.02
2022-09-25T19:19:25.039Z,10.01
2022-09-25T19:21:51.442Z,9.98
2022-09-25T19:24:18.375Z,10.05
2022-09-25T19:26:44.870Z,10.01
2022-09-25T19:29:11.324Z,10.02
2022-09-25T19:31:37.788Z,9.93
2022-09-25T19:34:05.017Z,9.98
2022-09-25T19:36:31.676Z,10.03
2022-09-25T19:38:58.107Z,10.05
2022-09-25T19:41:27.514Z,9.94
2022-09-25T19:43:54.422Z,9.98
2022-09-25T19:46:20.792Z,10.00
2022-09-25T19:48:47.548Z,10.01
2022-09-25T19:51:14.160Z,10.04
2022-09-25T19:53:40.773Z,10.05
2022-09-25T19:56:07.218Z,9.88
2022-09-25T19:58:36.242Z,9.89
2022-09-25T20:01:03.111Z,9.79
2022-09-25T20:03:29.792Z,9.77
2022-09-25T20:05:56.422Z,9.81
2022-09-25T20:08:22.817Z,9.89
2022-09-25T20:10:49.134Z,9.91
2022-09-25T20:13:15.482Z,10.03
2022-09-25T20:15:42.785Z,10.14
2022-09-25T20:18:09.398Z,10.19
2022-09-25T20:20:35.793Z,10.17
2022-09-25T20:23:02.143Z,10.18
2022-09-25T20:25:28.512Z,10.27
2022-09-25T20:27:54.951Z,10.19
2022-09-25T20:30:21.517Z,9.91
2022-09-25T20:32:47.873Z,9.65
2022-09-25T20:35:14.194Z,9.74
2022-09-25T20:37:40.525Z,9.88
2022-09-25T20:40:07.052Z,9.86
2022-09-25T20:42:33.939Z,9.86
2022-09-25T20:45:00.271Z,9.87
2022-09-25T20:47:30.145Z,9.83
2022-09-25T20:49:57.301Z,9.85
2022-09-25T20:52:23.941Z,9.95
2022-09-25T20:54:50.536Z,9.88
2022-09-25T20:57:16.849Z,9.90
2022-09-25T20:59:43.175Z,9.87
2022-09-25T21:02:09.641Z,9.69
2022-09-25T21:04:36.096Z,9.68
2022-09-25T21:07:03.629Z,9.69
2022-09-25T21:09:30.024Z,9.63
2022-09-25T21:11:56.343Z,9.73
2022-09-25T21:14:24.765Z,9.70
2022-09-25T21:16:51.226Z,9.65
2022-09-25T21:19:18.167Z,9.57
2022-09-25T21:21:44.594Z,9.58
2022-09-25T21:24:12.380Z,9.46
2022-09-25T21:26:38.719Z,9.40
2022-09-25T21:29:05.744Z,9.45
2022-09-25T21:31:34.590Z,9.40
2022-09-25T21:34:00.941Z,9.46
2022-09-25T21:36:27.510Z,9.50
2022-09-25T21:38:53.830Z,9.33
2022-09-25T21:41:23.715Z,9.23
2022-09-25T21:44:11.489Z,9.09
2022-09-25T21:46:37.873Z,9.07
2022-09-25T21:49:04.699Z,9.04
2022-09-25T21:51:32.011Z,8.99
2022-09-25T21:53:58.404Z,8.90
2022-09-25T21:56:25.364Z,8.87
2022-09-25T21:58:52.056Z,8.71
2022-09-25T22:01:19.143Z,8.57
2022-09-25T22:03:51.006Z,8.52
2022-09-25T22:06:18.378Z,8.36
2022-09-25T22:08:45.066Z,8.36
2022-09-25T22:11:11.406Z,8.24
2022-09-25T22:13:38.328Z,8.31
2022-09-25T22:16:08.485Z,8.24
2022-09-25T22:18:40.312Z,8.16
2022-09-25T22:21:06.620Z,8.18
2022-09-25T22:23:32.977Z,8.22
2022-09-25T22:26:02.525Z,8.30
2022-09-25T22:28:28.919Z,8.26
2022-09-25T22:30:55.325Z,8.19
2022-09-25T22:33:21.742Z,8.17
2022-09-25T22:35:48.135Z,8.09
2022-09-25T22:38:14.461Z,8.19
2022-09-25T22:40:40.836Z,8.19
2022-09-25T22:43:07.245Z,8.35
2022-09-25T22:45:33.567Z,8.23
2022-09-25T22:48:00.076Z,8.30
2022-09-25T22:50:26.905Z,8.33
2022-09-25T22:52:58.178Z,8.38
2022-09-25T22:55:24.903Z,8.44
2022-09-25T22:57:51.263Z,8.40
2022-09-25T23:00:17.567Z,8.51
2022-09-25T23:02:44.034Z,8.56
2022-09-25T23:05:10.391Z,8.54
2022-09-25T23:07:36.741Z,8.39
2022-09-25T23:10:03.128Z,8.27
2022-09-25T23:12:30.856Z,8.25
2022-09-25T23:14:57.276Z,8.32
2022-09-25T23:17:23.697Z,8.40
2022-09-25T23:19:50.015Z,8.41
2022-09-25T23:22:16.330Z,8.53
2022-09-25T23:24:42.664Z,8.40
2022-09-25T23:27:08.975Z,8.50
2022-09-25T23:29:35.292Z,8.41
2022-09-25T23:32:02.654Z,8.44
2022-09-25T23:34:28.995Z,8.52
2022-09-25T23:36:55.461Z,8.54
2022-09-25T23:39:21.840Z,8.68
2022-09-25T23:41:48.249Z,8.62
2022-09-25T23:44:14.571Z,8.64
2022-09-25T23:46:41.216Z,8.66
2022-09-25T23:49:07.666Z,8.48
2022-09-25T23:51:33.997Z,8.39
2022-09-25T23:54:00.576Z,8.51
2022-09-25T23:56:33.871Z,8.57
2022-09-25T23:59:01.179Z,8.45
